sensor_id;sensor_type;location;lat;lon;timestamp;pressure;altitude;pressure_sealevel;temperature;humidity
22651;BME280;11492;42.646;23.400;2023-05-03T00:02:09;95386.91;;;14.14;39.30
22651;BME280;11492;42.646;23.400;2023-05-03T00:04:36;95395.00;;;13.98;39.57
22651;BME280;11492;42.646;23.400;2023-05-03T00:07:02;95396.09;;;13.90;40.42
22651;BME280;11492;42.646;23.400;2023-05-03T00:09:28;95401.03;;;13.85;40.37
22651;BME280;11492;42.646;23.400;2023-05-03T00:11:53;95399.66;;;13.82;40.23
22651;BME280;11492;42.646;23.400;2023-05-03T00:14:19;95400.56;;;13.75;40.43
22651;BME280;11492;42.646;23.400;2023-05-03T00:16:44;95409.22;;;13.82;40.44
22651;BME280;11492;42.646;23.400;2023-05-03T00:19:10;95406.75;;;13.74;40.36
22651;BME280;11492;42.646;23.400;2023-05-03T00:21:35;95406.50;;;13.69;40.56
22651;BME280;11492;42.646;23.400;2023-05-03T00:24:00;95423.53;;;13.71;40.21
22651;BME280;11492;42.646;23.400;2023-05-03T00:26:27;95421.25;;;13.62;40.33
22651;BME280;11492;42.646;23.400;2023-05-03T00:28:52;95412.31;;;13.50;41.45
22651;BME280;11492;42.646;23.400;2023-05-03T00:31:18;95425.44;;;13.43;41.11
22651;BME280;11492;42.646;23.400;2023-05-03T00:33:43;95423.94;;;13.34;40.97
22651;BME280;11492;42.646;23.400;2023-05-03T00:36:10;95427.28;;;13.28;41.19
22651;BME280;11492;42.646;23.400;2023-05-03T00:38:37;95419.63;;;13.20;41.15
22651;BME280;11492;42.646;23.400;2023-05-03T00:41:03;95425.78;;;13.19;40.89
22651;BME280;11492;42.646;23.400;2023-05-03T00:43:29;95425.53;;;13.14;41.40
22651;BME280;11492;42.646;23.400;2023-05-03T00:45:55;95442.88;;;13.14;42.18
22651;BME280;11492;42.646;23.400;2023-05-03T00:48:21;95433.78;;;13.03;41.51
22651;BME280;11492;42.646;23.400;2023-05-03T00:50:47;95413.28;;;12.88;41.98
22651;BME280;11492;42.646;23.400;2023-05-03T00:53:13;95417.72;;;12.94;42.40
22651;BME280;11492;42.646;23.400;2023-05-03T00:55:39;95422.91;;;12.94;42.67
22651;BME280;11492;42.646;23.400;2023-05-03T00:58:06;95433.28;;;12.94;42.40
22651;BME280;11492;42.646;23.400;2023-05-03T01:00:31;95429.28;;;12.91;42.94
22651;BME280;11492;42.646;23.400;2023-05-03T01:02:57;95415.25;;;12.86;42.57
22651;BME280;11492;42.646;23.400;2023-05-03T01:05:24;95423.75;;;12.94;42.14
22651;BME280;11492;42.646;23.400;2023-05-03T01:13:23;95401.47;;;12.99;42.39
22651;BME280;11492;42.646;23.400;2023-05-03T01:16:46;95400.56;;;12.93;42.57
22651;BME280;11492;42.646;23.400;2023-05-03T01:18:47;95384.50;;;12.83;42.49
22651;BME280;11492;42.646;23.400;2023-05-03T01:21:16;95387.75;;;12.85;43.15
22651;BME280;11492;42.646;23.400;2023-05-03T01:26:22;95375.63;;;12.71;43.31
22651;BME280;11492;42.646;23.400;2023-05-03T01:28:47;95361.22;;;12.69;43.37
22651;BME280;11492;42.646;23.400;2023-05-03T01:31:18;95370.44;;;12.71;43.77
22651;BME280;11492;42.646;23.400;2023-05-03T01:33:52;95366.84;;;12.72;43.32
22651;BME280;11492;42.646;23.400;2023-05-03T01:36:26;95355.34;;;12.60;43.90
22651;BME280;11492;42.646;23.400;2023-05-03T01:38:53;95356.88;;;12.55;43.14
22651;BME280;11492;42.646;23.400;2023-05-03T01:41:20;95363.09;;;12.60;43.69
22651;BME280;11492;42.646;23.400;2023-05-03T01:43:47;95359.47;;;12.55;43.96
22651;BME280;11492;42.646;23.400;2023-05-03T01:46:14;95350.88;;;12.54;43.77
22651;BME280;11492;42.646;23.400;2023-05-03T01:48:39;95342.13;;;12.55;44.11
22651;BME280;11492;42.646;23.400;2023-05-03T01:51:05;95346.94;;;12.58;44.14
22651;BME280;11492;42.646;23.400;2023-05-03T01:53:30;95347.56;;;12.60;43.55
22651;BME280;11492;42.646;23.400;2023-05-03T01:55:56;95345.69;;;12.54;43.82
22651;BME280;11492;42.646;23.400;2023-05-03T01:58:21;95346.50;;;12.55;43.81
22651;BME280;11492;42.646;23.400;2023-05-03T02:00:47;95341.34;;;12.41;44.55
22651;BME280;11492;42.646;23.400;2023-05-03T02:03:13;95337.97;;;12.26;44.78
22651;BME280;11492;42.646;23.400;2023-05-03T02:05:38;95327.47;;;12.27;44.65
22651;BME280;11492;42.646;23.400;2023-05-03T02:08:05;95335.03;;;12.29;44.67
22651;BME280;11492;42.646;23.400;2023-05-03T02:10:30;95327.25;;;12.29;45.07
22651;BME280;11492;42.646;23.400;2023-05-03T02:12:56;95332.44;;;12.29;44.94
22651;BME280;11492;42.646;23.400;2023-05-03T02:15:21;95338.63;;;12.28;45.14
22651;BME280;11492;42.646;23.400;2023-05-03T02:17:47;95331.03;;;12.26;45.09
22651;BME280;11492;42.646;23.400;2023-05-03T02:20:13;95340.47;;;12.34;45.24
22651;BME280;11492;42.646;23.400;2023-05-03T02:22:39;95341.63;;;12.31;45.57
22651;BME280;11492;42.646;23.400;2023-05-03T02:25:04;95343.59;;;12.29;45.37
22651;BME280;11492;42.646;23.400;2023-05-03T02:27:31;95332.00;;;12.25;45.38
22651;BME280;11492;42.646;23.400;2023-05-03T02:29:56;95344.59;;;12.28;45.45
22651;BME280;11492;42.646;23.400;2023-05-03T02:32:21;95331.47;;;12.30;44.97
22651;BME280;11492;42.646;23.400;2023-05-03T02:34:48;95317.72;;;12.15;45.09
22651;BME280;11492;42.646;23.400;2023-05-03T02:37:14;95332.63;;;12.27;44.90
22651;BME280;11492;42.646;23.400;2023-05-03T02:39:40;95330.03;;;12.27;44.88
22651;BME280;11492;42.646;23.400;2023-05-03T02:42:05;95337.97;;;12.26;45.98
22651;BME280;11492;42.646;23.400;2023-05-03T02:44:31;95340.81;;;12.31;45.71
22651;BME280;11492;42.646;23.400;2023-05-03T02:46:57;95333.44;;;12.28;45.78
22651;BME280;11492;42.646;23.400;2023-05-03T02:49:22;95334.91;;;12.37;45.39
22651;BME280;11492;42.646;23.400;2023-05-03T02:51:48;95333.25;;;12.29;44.97
22651;BME280;11492;42.646;23.400;2023-05-03T02:54:13;95329.59;;;12.24;45.56
22651;BME280;11492;42.646;23.400;2023-05-03T02:56:39;95322.09;;;12.29;44.67
22651;BME280;11492;42.646;23.400;2023-05-03T02:59:04;95321.81;;;12.38;45.52
22651;BME280;11492;42.646;23.400;2023-05-03T03:01:30;95332.09;;;12.32;45.55
22651;BME280;11492;42.646;23.400;2023-05-03T03:03:58;95316.84;;;12.22;45.32
22651;BME280;11492;42.646;23.400;2023-05-03T03:06:23;95333.31;;;12.36;45.26
22651;BME280;11492;42.646;23.400;2023-05-03T03:08:49;95327.16;;;12.37;45.11
22651;BME280;11492;42.646;23.400;2023-05-03T03:11:14;95334.63;;;12.46;46.36
22651;BME280;11492;42.646;23.400;2023-05-03T03:13:40;95338.53;;;12.56;44.96
22651;BME280;11492;42.646;23.400;2023-05-03T03:16:06;95333.09;;;12.51;44.61
22651;BME280;11492;42.646;23.400;2023-05-03T03:18:32;95344.38;;;12.58;45.32
22651;BME280;11492;42.646;23.400;2023-05-03T03:20:59;95335.41;;;12.61;45.10
22651;BME280;11492;42.646;23.400;2023-05-03T03:23:25;95329.78;;;12.57;44.74
22651;BME280;11492;42.646;23.400;2023-05-03T03:25:50;95349.41;;;12.66;44.26
22651;BME280;11492;42.646;23.400;2023-05-03T03:28:16;95353.09;;;12.57;45.14
22651;BME280;11492;42.646;23.400;2023-05-03T03:30:41;95357.06;;;12.53;45.07
22651;BME280;11492;42.646;23.400;2023-05-03T03:33:07;95351.28;;;12.37;45.90
22651;BME280;11492;42.646;23.400;2023-05-03T03:35:32;95347.31;;;12.41;45.93
22651;BME280;11492;42.646;23.400;2023-05-03T03:37:58;95359.72;;;12.45;45.51
22651;BME280;11492;42.646;23.400;2023-05-03T03:40:24;95355.63;;;12.37;45.48
22651;BME280;11492;42.646;23.400;2023-05-03T03:42:49;95374.22;;;12.26;46.19
22651;BME280;11492;42.646;23.400;2023-05-03T03:45:15;95363.16;;;12.18;45.79
22651;BME280;11492;42.646;23.400;2023-05-03T03:47:40;95368.78;;;12.21;46.29
22651;BME280;11492;42.646;23.400;2023-05-03T03:50:06;95379.84;;;12.15;45.90
22651;BME280;11492;42.646;23.400;2023-05-03T03:52:31;95377.91;;;12.03;46.31
22651;BME280;11492;42.646;23.400;2023-05-03T03:54:56;95381.22;;;12.11;45.97
22651;BME280;11492;42.646;23.400;2023-05-03T03:57:22;95390.75;;;12.25;45.52
22651;BME280;11492;42.646;23.400;2023-05-03T03:59:50;95384.16;;;12.22;46.11
22651;BME280;11492;42.646;23.400;2023-05-03T04:02:15;95401.03;;;12.33;46.26
22651;BME280;11492;42.646;23.400;2023-05-03T04:04:41;95402.16;;;12.30;45.42
22651;BME280;11492;42.646;23.400;2023-05-03T04:07:08;95406.91;;;12.27;45.84
22651;BME280;11492;42.646;23.400;2023-05-03T04:09:33;95403.59;;;12.19;45.75
22651;BME280;11492;42.646;23.400;2023-05-03T04:11:59;95407.91;;;12.12;46.48
22651;BME280;11492;42.646;23.400;2023-05-03T04:14:26;95415.56;;;12.20;46.53
22651;BME280;11492;42.646;23.400;2023-05-03T04:16:51;95412.34;;;12.18;46.07
22651;BME280;11492;42.646;23.400;2023-05-03T04:19:16;95413.97;;;12.19;45.86
22651;BME280;11492;42.646;23.400;2023-05-03T04:21:42;95413.06;;;12.26;45.98
22651;BME280;11492;42.646;23.400;2023-05-03T04:24:08;95420.13;;;12.32;46.21
22651;BME280;11492;42.646;23.400;2023-05-03T04:26:34;95420.75;;;12.34;46.43
22651;BME280;11492;42.646;23.400;2023-05-03T04:29:00;95426.19;;;12.39;46.56
22651;BME280;11492;42.646;23.400;2023-05-03T04:31:25;95432.63;;;12.43;46.34
22651;BME280;11492;42.646;23.400;2023-05-03T04:33:52;95433.59;;;12.42;47.70
22651;BME280;11492;42.646;23.400;2023-05-03T04:36:17;95439.84;;;12.47;49.51
22651;BME280;11492;42.646;23.400;2023-05-03T04:38:43;95446.16;;;12.87;52.61
22651;BME280;11492;42.646;23.400;2023-05-03T04:41:08;95438.84;;;12.91;49.75
22651;BME280;11492;42.646;23.400;2023-05-03T04:43:34;95440.63;;;13.25;50.66
22651;BME280;11492;42.646;23.400;2023-05-03T04:46:00;95453.34;;;13.20;48.41
22651;BME280;11492;42.646;23.400;2023-05-03T04:48:28;95453.91;;;13.16;47.91
22651;BME280;11492;42.646;23.400;2023-05-03T04:50:53;95453.31;;;12.99;47.84
22651;BME280;11492;42.646;23.400;2023-05-03T04:53:18;95462.50;;;13.02;50.22
22651;BME280;11492;42.646;23.400;2023-05-03T04:55:44;95465.28;;;13.00;49.58
22651;BME280;11492;42.646;23.400;2023-05-03T04:58:09;95471.81;;;12.82;49.16
22651;BME280;11492;42.646;23.400;2023-05-03T05:00:35;95476.94;;;12.76;48.41
22651;BME280;11492;42.646;23.400;2023-05-03T05:03:00;95473.50;;;12.61;48.65
22651;BME280;11492;42.646;23.400;2023-05-03T05:05:26;95474.06;;;12.43;50.11
22651;BME280;11492;42.646;23.400;2023-05-03T05:07:51;95481.72;;;12.50;49.67
22651;BME280;11492;42.646;23.400;2023-05-03T05:10:17;95479.75;;;12.67;50.16
22651;BME280;11492;42.646;23.400;2023-05-03T05:12:42;95490.50;;;12.78;51.19
22651;BME280;11492;42.646;23.400;2023-05-03T05:15:08;95497.31;;;12.79;50.40
22651;BME280;11492;42.646;23.400;2023-05-03T05:17:34;95480.50;;;12.75;50.21
22651;BME280;11492;42.646;23.400;2023-05-03T05:19:59;95479.44;;;12.84;50.77
22651;BME280;11492;42.646;23.400;2023-05-03T05:22:25;95487.47;;;12.74;50.72
22651;BME280;11492;42.646;23.400;2023-05-03T05:24:50;95494.88;;;12.77;50.57
22651;BME280;11492;42.646;23.400;2023-05-03T05:27:16;95495.88;;;12.76;51.67
22651;BME280;11492;42.646;23.400;2023-05-03T05:29:41;95484.97;;;12.81;50.84
22651;BME280;11492;42.646;23.400;2023-05-03T05:32:07;95485.69;;;12.75;50.83
22651;BME280;11492;42.646;23.400;2023-05-03T05:34:32;95490.50;;;12.78;50.38
22651;BME280;11492;42.646;23.400;2023-05-03T05:36:58;95502.75;;;12.84;51.88
22651;BME280;11492;42.646;23.400;2023-05-03T05:39:24;95480.50;;;12.75;50.02
22651;BME280;11492;42.646;23.400;2023-05-03T05:41:50;95473.16;;;12.64;50.90
22651;BME280;11492;42.646;23.400;2023-05-03T05:44:15;95471.03;;;12.53;50.77
22651;BME280;11492;42.646;23.400;2023-05-03T05:46:41;95487.66;;;12.73;50.77
22651;BME280;11492;42.646;23.400;2023-05-03T05:49:06;95473.88;;;12.58;49.95
22651;BME280;11492;42.646;23.400;2023-05-03T05:51:31;95433.75;;;12.26;50.13
22651;BME280;11492;42.646;23.400;2023-05-03T05:53:57;95454.56;;;12.46;49.94
22651;BME280;11492;42.646;23.400;2023-05-03T05:56:22;95443.16;;;12.27;50.23
22651;BME280;11492;42.646;23.400;2023-05-03T05:58:48;95447.09;;;12.23;49.73
22651;BME280;11492;42.646;23.400;2023-05-03T06:01:14;95463.06;;;12.26;50.50
22651;BME280;11492;42.646;23.400;2023-05-03T06:03:39;95466.38;;;12.35;50.76
22651;BME280;11492;42.646;23.400;2023-05-03T06:06:05;95474.41;;;12.40;49.86
22651;BME280;11492;42.646;23.400;2023-05-03T06:08:31;95479.59;;;12.40;51.34
22651;BME280;11492;42.646;23.400;2023-05-03T06:10:56;95465.91;;;12.45;51.08
22651;BME280;11492;42.646;23.400;2023-05-03T06:13:22;95461.72;;;12.45;50.69
22651;BME280;11492;42.646;23.400;2023-05-03T06:15:47;95440.22;;;12.44;49.83
22651;BME280;11492;42.646;23.400;2023-05-03T06:18:13;95470.56;;;12.64;49.66
22651;BME280;11492;42.646;23.400;2023-05-03T06:20:38;95465.47;;;12.56;50.18
22651;BME280;11492;42.646;23.400;2023-05-03T06:23:04;95471.97;;;12.67;50.11
22651;BME280;11492;42.646;23.400;2023-05-03T06:25:29;95455.75;;;12.72;50.99
22651;BME280;11492;42.646;23.400;2023-05-03T06:27:55;95480.91;;;12.93;51.27
22651;BME280;11492;42.646;23.400;2023-05-03T06:30:20;95462.06;;;12.70;49.91
22651;BME280;11492;42.646;23.400;2023-05-03T06:32:47;95477.19;;;12.81;50.11
22651;BME280;11492;42.646;23.400;2023-05-03T06:35:13;95420.63;;;12.42;50.50
22651;BME280;11492;42.646;23.400;2023-05-03T06:37:39;95456.91;;;12.70;50.35
22651;BME280;11492;42.646;23.400;2023-05-03T06:40:08;95428.59;;;12.69;50.57
22651;BME280;11492;42.646;23.400;2023-05-03T06:42:33;95429.38;;;12.69;49.91
22651;BME280;11492;42.646;23.400;2023-05-03T06:44:59;95447.41;;;12.91;49.57
22651;BME280;11492;42.646;23.400;2023-05-03T06:47:24;95437.25;;;12.90;49.25
22651;BME280;11492;42.646;23.400;2023-05-03T06:49:50;95444.59;;;13.07;49.13
22651;BME280;11492;42.646;23.400;2023-05-03T06:52:15;95449.44;;;13.10;50.16
22651;BME280;11492;42.646;23.400;2023-05-03T06:54:41;95408.59;;;12.97;48.96
22651;BME280;11492;42.646;23.400;2023-05-03T06:57:06;95427.16;;;13.15;48.65
22651;BME280;11492;42.646;23.400;2023-05-03T06:59:32;95411.50;;;13.09;49.12
22651;BME280;11492;42.646;23.400;2023-05-03T07:01:57;95430.44;;;13.23;49.83
22651;BME280;11492;42.646;23.400;2023-05-03T07:04:23;95426.28;;;13.08;48.63
22651;BME280;11492;42.646;23.400;2023-05-03T07:06:48;95412.81;;;12.98;49.63
22651;BME280;11492;42.646;23.400;2023-05-03T07:09:14;95398.97;;;12.92;49.86
22651;BME280;11492;42.646;23.400;2023-05-03T07:11:39;95396.03;;;12.95;49.84
22651;BME280;11492;42.646;23.400;2023-05-03T07:14:13;95409.72;;;12.89;50.05
22651;BME280;11492;42.646;23.400;2023-05-03T07:16:39;95421.44;;;12.85;50.77
22651;BME280;11492;42.646;23.400;2023-05-03T07:19:04;95426.88;;;12.90;51.09
22651;BME280;11492;42.646;23.400;2023-05-03T07:21:30;95442.94;;;12.99;51.08
22651;BME280;11492;42.646;23.400;2023-05-03T07:23:56;95400.78;;;12.77;51.16
22651;BME280;11492;42.646;23.400;2023-05-03T07:26:21;95437.09;;;13.12;51.30
22651;BME280;11492;42.646;23.400;2023-05-03T07:28:47;95441.31;;;12.98;51.52
22651;BME280;11492;42.646;23.400;2023-05-03T07:31:12;95421.56;;;12.97;51.43
22651;BME280;11492;42.646;23.400;2023-05-03T07:33:38;95439.44;;;13.07;51.63
22651;BME280;11492;42.646;23.400;2023-05-03T07:36:04;95438.66;;;12.92;51.54
22651;BME280;11492;42.646;23.400;2023-05-03T07:38:29;95400.91;;;12.55;52.30
22651;BME280;11492;42.646;23.400;2023-05-03T07:40:55;95412.69;;;12.71;52.40
22651;BME280;11492;42.646;23.400;2023-05-03T07:43:20;95421.38;;;12.78;52.29
22651;BME280;11492;42.646;23.400;2023-05-03T07:45:48;95425.56;;;12.79;52.58
22651;BME280;11492;42.646;23.400;2023-05-03T07:48:13;95394.72;;;12.70;52.56
22651;BME280;11492;42.646;23.400;2023-05-03T07:50:43;95414.91;;;12.89;52.43
22651;BME280;11492;42.646;23.400;2023-05-03T07:53:10;95419.09;;;12.90;53.43
22651;BME280;11492;42.646;23.400;2023-05-03T07:55:35;95404.31;;;13.04;53.36
22651;BME280;11492;42.646;23.400;2023-05-03T07:58:02;95410.94;;;13.27;53.38
22651;BME280;11492;42.646;23.400;2023-05-03T08:00:29;95401.84;;;13.17;53.17
22651;BME280;11492;42.646;23.400;2023-05-03T08:02:55;95387.94;;;13.24;52.53
22651;BME280;11492;42.646;23.400;2023-05-03T08:05:21;95404.44;;;13.38;52.87
22651;BME280;11492;42.646;23.400;2023-05-03T08:07:48;95408.09;;;13.43;52.43
22651;BME280;11492;42.646;23.400;2023-05-03T08:10:13;95425.88;;;13.67;51.53
22651;BME280;11492;42.646;23.400;2023-05-03T08:12:39;95408.66;;;13.66;51.60
22651;BME280;11492;42.646;23.400;2023-05-03T08:15:05;95427.22;;;14.10;51.23
22651;BME280;11492;42.646;23.400;2023-05-03T08:17:31;95422.66;;;14.46;50.58
22651;BME280;11492;42.646;23.400;2023-05-03T08:19:57;95417.47;;;14.85;49.58
22651;BME280;11492;42.646;23.400;2023-05-03T08:22:23;95379.63;;;14.70;48.84
22651;BME280;11492;42.646;23.400;2023-05-03T08:24:51;95396.25;;;14.82;48.81
22651;BME280;11492;42.646;23.400;2023-05-03T08:27:18;95403.69;;;14.97;48.66
22651;BME280;11492;42.646;23.400;2023-05-03T08:29:44;95422.38;;;15.14;48.18
22651;BME280;11492;42.646;23.400;2023-05-03T08:32:09;95419.97;;;15.06;48.66
22651;BME280;11492;42.646;23.400;2023-05-03T08:34:35;95430.50;;;14.98;49.51
22651;BME280;11492;42.646;23.400;2023-05-03T08:37:01;95417.03;;;15.28;48.68
22651;BME280;11492;42.646;23.400;2023-05-03T08:39:28;95398.06;;;15.91;47.49
22651;BME280;11492;42.646;23.400;2023-05-03T08:41:55;95395.78;;;16.58;44.71
22651;BME280;11492;42.646;23.400;2023-05-03T08:44:21;95388.41;;;17.05;44.92
22651;BME280;11492;42.646;23.400;2023-05-03T08:46:48;95381.13;;;17.44;43.49
22651;BME280;11492;42.646;23.400;2023-05-03T08:49:15;95386.66;;;18.14;42.93
22651;BME280;11492;42.646;23.400;2023-05-03T08:51:43;95415.09;;;19.05;41.67
22651;BME280;11492;42.646;23.400;2023-05-03T08:54:14;95386.00;;;18.96;40.17
22651;BME280;11492;42.646;23.400;2023-05-03T08:56:41;95382.44;;;18.90;40.09
22651;BME280;11492;42.646;23.400;2023-05-03T08:59:09;95387.81;;;18.95;40.72
22651;BME280;11492;42.646;23.400;2023-05-03T09:01:36;95418.59;;;19.28;40.46
22651;BME280;11492;42.646;23.400;2023-05-03T09:04:03;95401.03;;;19.47;40.73
22651;BME280;11492;42.646;23.400;2023-05-03T09:06:29;95404.03;;;19.90;39.73
22651;BME280;11492;42.646;23.400;2023-05-03T09:08:57;95413.19;;;20.22;39.79
22651;BME280;11492;42.646;23.400;2023-05-03T09:11:25;95395.19;;;20.14;39.01
22651;BME280;11492;42.646;23.400;2023-05-03T09:13:52;95402.38;;;20.41;38.61
22651;BME280;11492;42.646;23.400;2023-05-03T09:16:25;95392.59;;;20.70;38.80
22651;BME280;11492;42.646;23.400;2023-05-03T09:19:04;95383.03;;;21.03;37.56
22651;BME280;11492;42.646;23.400;2023-05-03T09:21:41;95383.88;;;21.31;37.62
22651;BME280;11492;42.646;23.400;2023-05-03T09:24:15;95369.00;;;21.36;37.76
22651;BME280;11492;42.646;23.400;2023-05-03T09:26:41;95370.78;;;21.08;37.14
22651;BME280;11492;42.646;23.400;2023-05-03T09:29:07;95384.56;;;21.38;36.69
22651;BME280;11492;42.646;23.400;2023-05-03T09:31:35;95380.13;;;21.54;36.44
22651;BME280;11492;42.646;23.400;2023-05-03T09:34:01;95365.13;;;21.39;36.50
22651;BME280;11492;42.646;23.400;2023-05-03T09:36:45;95371.00;;;21.18;37.06
22651;BME280;11492;42.646;23.400;2023-05-03T09:39:17;95364.59;;;21.14;37.18
22651;BME280;11492;42.646;23.400;2023-05-03T09:41:44;95331.84;;;21.05;37.64
22651;BME280;11492;42.646;23.400;2023-05-03T09:44:10;95349.44;;;21.44;37.33
22651;BME280;11492;42.646;23.400;2023-05-03T09:46:35;95348.47;;;22.09;35.89
22651;BME280;11492;42.646;23.400;2023-05-03T09:49:02;95338.34;;;22.18;35.38
22651;BME280;11492;42.646;23.400;2023-05-03T09:51:28;95326.56;;;22.20;35.89
22651;BME280;11492;42.646;23.400;2023-05-03T09:53:55;95336.13;;;22.26;35.52
22651;BME280;11492;42.646;23.400;2023-05-03T09:56:21;95323.84;;;22.15;36.10
22651;BME280;11492;42.646;23.400;2023-05-03T09:58:53;95347.53;;;22.69;35.34
22651;BME280;11492;42.646;23.400;2023-05-03T10:01:19;95338.91;;;23.15;34.32
22651;BME280;11492;42.646;23.400;2023-05-03T10:03:49;95313.47;;;23.77;33.98
22651;BME280;11492;42.646;23.400;2023-05-03T10:06:24;95329.50;;;24.33;32.80
22651;BME280;11492;42.646;23.400;2023-05-03T10:11:32;95326.97;;;24.52;32.20
22651;BME280;11492;42.646;23.400;2023-05-03T10:13:58;95335.41;;;24.50;32.46
22651;BME280;11492;42.646;23.400;2023-05-03T10:16:36;95338.75;;;24.35;32.82
22651;BME280;11492;42.646;23.400;2023-05-03T10:22:08;95296.75;;;23.67;33.45
22651;BME280;11492;42.646;23.400;2023-05-03T10:24:35;95294.94;;;23.42;34.15
22651;BME280;11492;42.646;23.400;2023-05-03T10:27:01;95307.63;;;23.45;33.80
22651;BME280;11492;42.646;23.400;2023-05-03T10:37:50;95284.19;;;22.80;35.29
22651;BME280;11492;42.646;23.400;2023-05-03T10:40:17;95295.97;;;22.73;35.76
22651;BME280;11492;42.646;23.400;2023-05-03T10:42:45;95273.88;;;22.36;36.04
22651;BME280;11492;42.646;23.400;2023-05-03T10:50:40;95305.34;;;22.10;37.12
22651;BME280;11492;42.646;23.400;2023-05-03T10:53:06;95290.66;;;21.82;37.63
22651;BME280;11492;42.646;23.400;2023-05-03T10:55:32;95293.53;;;21.64;37.33
22651;BME280;11492;42.646;23.400;2023-05-03T10:57:58;95289.22;;;20.87;38.13
22651;BME280;11492;42.646;23.400;2023-05-03T11:00:35;95306.13;;;20.80;38.89
22651;BME280;11492;42.646;23.400;2023-05-03T11:03:25;95309.94;;;20.39;39.68
22651;BME280;11492;42.646;23.400;2023-05-03T11:05:55;95267.16;;;20.38;39.10
22651;BME280;11492;42.646;23.400;2023-05-03T11:08:22;95286.56;;;20.37;39.16
22651;BME280;11492;42.646;23.400;2023-05-03T11:10:57;95276.22;;;20.31;39.07
22651;BME280;11492;42.646;23.400;2023-05-03T11:13:24;95279.44;;;20.10;39.98
22651;BME280;11492;42.646;23.400;2023-05-03T11:15:50;95280.69;;;19.85;41.18
22651;BME280;11492;42.646;23.400;2023-05-03T11:18:17;95299.03;;;19.97;40.74
22651;BME280;11492;42.646;23.400;2023-05-03T11:20:42;95299.94;;;19.68;41.63
22651;BME280;11492;42.646;23.400;2023-05-03T11:23:11;95284.09;;;19.86;41.31
22651;BME280;11492;42.646;23.400;2023-05-03T11:25:36;95288.78;;;19.84;41.68
22651;BME280;11492;42.646;23.400;2023-05-03T11:28:03;95264.50;;;19.88;41.42
22651;BME280;11492;42.646;23.400;2023-05-03T11:30:31;95278.84;;;20.31;41.01
22651;BME280;11492;42.646;23.400;2023-05-03T11:33:01;95260.84;;;20.73;40.31
22651;BME280;11492;42.646;23.400;2023-05-03T11:35:28;95271.56;;;20.99;40.28
22651;BME280;11492;42.646;23.400;2023-05-03T11:37:54;95265.31;;;21.16;40.27
22651;BME280;11492;42.646;23.400;2023-05-03T11:40:19;95281.09;;;21.44;39.80
22651;BME280;11492;42.646;23.400;2023-05-03T11:42:52;95269.88;;;21.80;39.25
22651;BME280;11492;42.646;23.400;2023-05-03T11:45:23;95268.19;;;21.91;39.28
22651;BME280;11492;42.646;23.400;2023-05-03T11:47:50;95256.22;;;21.51;39.20
22651;BME280;11492;42.646;23.400;2023-05-03T11:50:16;95261.22;;;20.93;40.61
22651;BME280;11492;42.646;23.400;2023-05-03T11:52:42;95262.94;;;20.60;40.95
22651;BME280;11492;42.646;23.400;2023-05-03T11:55:08;95275.75;;;20.84;41.22
22651;BME280;11492;42.646;23.400;2023-05-03T11:57:35;95263.56;;;21.33;40.67
22651;BME280;11492;42.646;23.400;2023-05-03T12:00:15;95258.78;;;21.78;39.21
22651;BME280;11492;42.646;23.400;2023-05-03T12:02:47;95257.66;;;22.65;37.84
22651;BME280;11492;42.646;23.400;2023-05-03T12:05:13;95247.81;;;23.24;36.52
22651;BME280;11492;42.646;23.400;2023-05-03T12:07:39;95246.94;;;23.71;35.76
22651;BME280;11492;42.646;23.400;2023-05-03T12:10:17;95252.25;;;23.45;35.88
22651;BME280;11492;42.646;23.400;2023-05-03T12:12:57;95265.16;;;22.73;36.69
22651;BME280;11492;42.646;23.400;2023-05-03T12:15:30;95266.28;;;21.70;38.36
22651;BME280;11492;42.646;23.400;2023-05-03T12:17:57;95261.72;;;21.06;39.80
22651;BME280;11492;42.646;23.400;2023-05-03T12:20:24;95269.81;;;20.49;40.70
22651;BME280;11492;42.646;23.400;2023-05-03T12:22:51;95257.88;;;19.97;41.95
22651;BME280;11492;42.646;23.400;2023-05-03T12:25:17;95262.91;;;19.76;42.87
22651;BME280;11492;42.646;23.400;2023-05-03T12:27:43;95261.69;;;19.38;43.32
22651;BME280;11492;42.646;23.400;2023-05-03T12:30:09;95274.25;;;19.07;44.40
22651;BME280;11492;42.646;23.400;2023-05-03T12:32:35;95257.03;;;18.71;45.57
22651;BME280;11492;42.646;23.400;2023-05-03T12:35:04;95266.47;;;18.43;46.81
22651;BME280;11492;42.646;23.400;2023-05-03T12:37:29;95260.50;;;18.19;47.19
22651;BME280;11492;42.646;23.400;2023-05-03T12:39:55;95260.72;;;18.17;47.60
22651;BME280;11492;42.646;23.400;2023-05-03T12:42:21;95252.44;;;18.02;47.85
22651;BME280;11492;42.646;23.400;2023-05-03T12:44:46;95258.06;;;17.82;47.78
22651;BME280;11492;42.646;23.400;2023-05-03T12:47:12;95247.16;;;17.85;48.23
22651;BME280;11492;42.646;23.400;2023-05-03T12:49:38;95254.19;;;17.67;48.05
22651;BME280;11492;42.646;23.400;2023-05-03T12:52:03;95256.28;;;17.58;49.26
22651;BME280;11492;42.646;23.400;2023-05-03T12:54:29;95249.84;;;17.37;50.81
22651;BME280;11492;42.646;23.400;2023-05-03T12:56:54;95245.38;;;17.20;51.94
22651;BME280;11492;42.646;23.400;2023-05-03T12:59:20;95251.53;;;16.95;52.96
22651;BME280;11492;42.646;23.400;2023-05-03T13:01:49;95254.38;;;16.87;54.53
22651;BME280;11492;42.646;23.400;2023-05-03T13:04:14;95232.13;;;16.54;55.61
22651;BME280;11492;42.646;23.400;2023-05-03T13:06:40;95258.63;;;16.45;55.73
22651;BME280;11492;42.646;23.400;2023-05-03T13:09:06;95262.91;;;16.33;56.58
22651;BME280;11492;42.646;23.400;2023-05-03T13:11:31;95253.84;;;16.42;57.04
22651;BME280;11492;42.646;23.400;2023-05-03T13:13:58;95259.78;;;16.55;55.89
22651;BME280;11492;42.646;23.400;2023-05-03T13:16:23;95254.88;;;16.41;55.37